sensor_id;sensor_type;location;lat;lon;timestamp;P1;durP1;ratioP1;P2;durP2;ratioP2
9880;SDS011;4979;51.014;6.678;2023-01-01T00:01:06;10.00;;;4.60;;
9880;SDS011;4979;51.014;6.678;2023-01-01T00:03:33;9.65;;;4.60;;
9880;SDS011;4979;51.014;6.678;2023-01-01T00:05:58;12.02;;;4.93;;
9880;SDS011;4979;51.014;6.678;2023-01-01T00:08:28;7.75;;;3.53;;
9880;SDS011;4979;51.014;6.678;2023-01-01T00:10:54;9.93;;;4.07;;
9880;SDS011;4979;51.014;6.678;2023-01-01T00:13:19;16.30;;;4.30;;
9880;SDS011;4979;51.014;6.678;2023-01-01T00:15:45;11.90;;;4.00;;
9880;SDS011;4979;51.014;6.678;2023-01-01T00:18:10;6.45;;;3.75;;
9880;SDS011;4979;51.014;6.678;2023-01-01T00:20:36;9.05;;;4.32;;
9880;SDS011;4979;51.014;6.678;2023-01-01T00:23:01;11.60;;;4.45;;
9880;SDS011;4979;51.014;6.678;2023-01-01T00:25:27;9.82;;;3.95;;
9880;SDS011;4979;51.014;6.678;2023-01-01T00:27:52;8.35;;;3.42;;
9880;SDS011;4979;51.014;6.678;2023-01-01T00:30:18;9.85;;;4.28;;
9880;SDS011;4979;51.014;6.678;2023-01-01T00:32:44;9.50;;;3.70;;
9880;SDS011;4979;51.014;6.678;2023-01-01T00:35:09;8.05;;;3.97;;
9880;SDS011;4979;51.014;6.678;2023-01-01T00:37:35;11.05;;;3.55;;
9880;SDS011;4979;51.014;6.678;2023-01-01T00:40:00;10.48;;;4.00;;
9880;SDS011;4979;51.014;6.678;2023-01-01T00:42:26;3.35;;;2.53;;
9880;SDS011;4979;51.014;6.678;2023-01-01T00:44:52;9.55;;;3.00;;
9880;SDS011;4979;51.014;6.678;2023-01-01T00:47:17;6.78;;;3.17;;
9880;SDS011;4979;51.014;6.678;2023-01-01T00:49:43;4.40;;;2.33;;
9880;SDS011;4979;51.014;6.678;2023-01-01T00:52:08;8.32;;;3.35;;
9880;SDS011;4979;51.014;6.678;2023-01-01T00:54:34;6.65;;;3.25;;
9880;SDS011;4979;51.014;6.678;2023-01-01T00:56:59;7.05;;;3.13;;
9880;SDS011;4979;51.014;6.678;2023-01-01T00:59:25;6.82;;;2.95;;
9880;SDS011;4979;51.014;6.678;2023-01-01T01:01:50;8.15;;;2.75;;
9880;SDS011;4979;51.014;6.678;2023-01-01T01:04:16;3.72;;;2.50;;
9880;SDS011;4979;51.014;6.678;2023-01-01T01:06:41;6.03;;;2.53;;
9880;SDS011;4979;51.014;6.678;2023-01-01T01:09:07;8.00;;;3.25;;
9880;SDS011;4979;51.014;6.678;2023-01-01T01:11:33;4.93;;;2.55;;
9880;SDS011;4979;51.014;6.678;2023-01-01T01:13:59;5.90;;;2.50;;
9880;SDS011;4979;51.014;6.678;2023-01-01T01:18:53;4.63;;;2.60;;
9880;SDS011;4979;51.014;6.678;2023-01-01T01:21:23;7.13;;;2.15;;
9880;SDS011;4979;51.014;6.678;2023-01-01T01:23:50;7.40;;;2.67;;
9880;SDS011;4979;51.014;6.678;2023-01-01T01:26:18;6.80;;;2.10;;
9880;SDS011;4979;51.014;6.678;2023-01-01T01:28:45;6.47;;;2.35;;
9880;SDS011;4979;51.014;6.678;2023-01-01T01:31:11;8.27;;;3.00;;
9880;SDS011;4979;51.014;6.678;2023-01-01T01:33:36;7.30;;;2.10;;
9880;SDS011;4979;51.014;6.678;2023-01-01T01:36:03;6.85;;;2.70;;
9880;SDS011;4979;51.014;6.678;2023-01-01T01:38:29;4.55;;;2.63;;
9880;SDS011;4979;51.014;6.678;2023-01-01T01:40:55;6.68;;;2.35;;
9880;SDS011;4979;51.014;6.678;2023-01-01T01:43:44;6.45;;;2.45;;
9880;SDS011;4979;51.014;6.678;2023-01-01T01:46:29;5.63;;;1.92;;
9880;SDS011;4979;51.014;6.678;2023-01-01T01:49:02;10.52;;;2.88;;
9880;SDS011;4979;51.014;6.678;2023-01-01T01:51:34;10.07;;;2.50;;
9880;SDS011;4979;51.014;6.678;2023-01-01T01:54:03;5.50;;;2.50;;
9880;SDS011;4979;51.014;6.678;2023-01-01T01:56:36;5.43;;;2.30;;
9880;SDS011;4979;51.014;6.678;2023-01-01T01:59:07;5.72;;;2.30;;
9880;SDS011;4979;51.014;6.678;2023-01-01T02:01:33;7.22;;;2.38;;
9880;SDS011;4979;51.014;6.678;2023-01-01T02:03:59;4.53;;;1.92;;
9880;SDS011;4979;51.014;6.678;2023-01-01T02:06:26;7.03;;;2.80;;
9880;SDS011;4979;51.014;6.678;2023-01-01T02:08:53;6.82;;;2.00;;
9880;SDS011;4979;51.014;6.678;2023-01-01T02:11:21;4.82;;;2.58;;
9880;SDS011;4979;51.014;6.678;2023-01-01T02:13:47;5.13;;;2.40;;
9880;SDS011;4979;51.014;6.678;2023-01-01T02:16:23;7.00;;;2.30;;
9880;SDS011;4979;51.014;6.678;2023-01-01T02:19:07;7.60;;;2.13;;
9880;SDS011;4979;51.014;6.678;2023-01-01T02:21:37;3.47;;;2.30;;
9880;SDS011;4979;51.014;6.678;2023-01-01T02:24:24;10.02;;;3.10;;
9880;SDS011;4979;51.014;6.678;2023-01-01T02:27:15;6.45;;;2.38;;
9880;SDS011;4979;51.014;6.678;2023-01-01T02:30:06;10.13;;;2.97;;
9880;SDS011;4979;51.014;6.678;2023-01-01T02:32:34;5.20;;;2.05;;
9880;SDS011;4979;51.014;6.678;2023-01-01T02:35:23;8.57;;;3.03;;
9880;SDS011;4979;51.014;6.678;2023-01-01T02:40:46;6.15;;;2.42;;
9880;SDS011;4979;51.014;6.678;2023-01-01T02:43:14;4.15;;;1.90;;
9880;SDS011;4979;51.014;6.678;2023-01-01T02:45:40;6.82;;;2.50;;
9880;SDS011;4979;51.014;6.678;2023-01-01T02:48:06;7.75;;;2.67;;
9880;SDS011;4979;51.014;6.678;2023-01-01T02:56:32;5.63;;;2.10;;
9880;SDS011;4979;51.014;6.678;2023-01-01T03:02:21;8.68;;;2.60;;
9880;SDS011;4979;51.014;6.678;2023-01-01T03:10:32;5.00;;;2.95;;
9880;SDS011;4979;51.014;6.678;2023-01-01T03:13:20;3.80;;;1.85;;
9880;SDS011;4979;51.014;6.678;2023-01-01T03:16:30;6.85;;;2.60;;
9880;SDS011;4979;51.014;6.678;2023-01-01T03:19:19;7.65;;;2.58;;
9880;SDS011;4979;51.014;6.678;2023-01-01T03:22:04;5.65;;;1.80;;
9880;SDS011;4979;51.014;6.678;2023-01-01T03:24:36;7.55;;;2.92;;
9880;SDS011;4979;51.014;6.678;2023-01-01T03:27:16;6.05;;;2.42;;
9880;SDS011;4979;51.014;6.678;2023-01-01T03:29:46;6.72;;;2.63;;
9880;SDS011;4979;51.014;6.678;2023-01-01T03:32:15;7.53;;;2.65;;
9880;SDS011;4979;51.014;6.678;2023-01-01T03:34:51;6.30;;;2.28;;
9880;SDS011;4979;51.014;6.678;2023-01-01T03:37:20;6.95;;;2.47;;
9880;SDS011;4979;51.014;6.678;2023-01-01T03:39:51;5.85;;;1.80;;
9880;SDS011;4979;51.014;6.678;2023-01-01T03:44:53;5.07;;;1.92;;
9880;SDS011;4979;51.014;6.678;2023-01-01T03:47:35;2.90;;;1.63;;
9880;SDS011;4979;51.014;6.678;2023-01-01T03:50:01;6.80;;;2.15;;
9880;SDS011;4979;51.014;6.678;2023-01-01T04:00:11;4.70;;;2.08;;
9880;SDS011;4979;51.014;6.678;2023-01-01T04:05:23;3.55;;;2.25;;
9880;SDS011;4979;51.014;6.678;2023-01-01T04:07:50;4.40;;;2.05;;
9880;SDS011;4979;51.014;6.678;2023-01-01T04:10:17;4.78;;;1.63;;
9880;SDS011;4979;51.014;6.678;2023-01-01T04:12:44;3.25;;;1.38;;
9880;SDS011;4979;51.014;6.678;2023-01-01T04:15:11;3.97;;;1.67;;
9880;SDS011;4979;51.014;6.678;2023-01-01T04:17:37;8.20;;;1.67;;
9880;SDS011;4979;51.014;6.678;2023-01-01T04:20:03;4.65;;;1.80;;
9880;SDS011;4979;51.014;6.678;2023-01-01T04:22:29;6.28;;;1.85;;
9880;SDS011;4979;51.014;6.678;2023-01-01T04:24:55;7.45;;;1.98;;
9880;SDS011;4979;51.014;6.678;2023-01-01T04:27:20;3.15;;;1.90;;
9880;SDS011;4979;51.014;6.678;2023-01-01T04:29:46;7.80;;;2.40;;
9880;SDS011;4979;51.014;6.678;2023-01-01T04:32:11;8.32;;;2.67;;
9880;SDS011;4979;51.014;6.678;2023-01-01T04:34:37;3.92;;;1.83;;
9880;SDS011;4979;51.014;6.678;2023-01-01T04:37:02;9.75;;;2.30;;
9880;SDS011;4979;51.014;6.678;2023-01-01T04:39:28;6.60;;;2.58;;
9880;SDS011;4979;51.014;6.678;2023-01-01T04:41:53;4.55;;;2.38;;
9880;SDS011;4979;51.014;6.678;2023-01-01T04:44:19;8.13;;;2.33;;
9880;SDS011;4979;51.014;6.678;2023-01-01T04:46:44;4.38;;;2.10;;
9880;SDS011;4979;51.014;6.678;2023-01-01T04:49:10;6.40;;;2.25;;
9880;SDS011;4979;51.014;6.678;2023-01-01T04:51:36;8.82;;;2.10;;
9880;SDS011;4979;51.014;6.678;2023-01-01T04:54:01;4.53;;;1.85;;
9880;SDS011;4979;51.014;6.678;2023-01-01T04:56:27;5.95;;;3.22;;
9880;SDS011;4979;51.014;6.678;2023-01-01T04:58:53;8.73;;;2.35;;
9880;SDS011;4979;51.014;6.678;2023-01-01T05:01:22;5.65;;;2.22;;
9880;SDS011;4979;51.014;6.678;2023-01-01T05:03:49;11.20;;;3.72;;
9880;SDS011;4979;51.014;6.678;2023-01-01T05:06:15;5.25;;;2.78;;
9880;SDS011;4979;51.014;6.678;2023-01-01T05:08:42;5.97;;;2.92;;
9880;SDS011;4979;51.014;6.678;2023-01-01T05:11:10;10.90;;;2.30;;
9880;SDS011;4979;51.014;6.678;2023-01-01T05:13:41;3.22;;;1.63;;
9880;SDS011;4979;51.014;6.678;2023-01-01T05:16:09;7.47;;;1.90;;
9880;SDS011;4979;51.014;6.678;2023-01-01T05:18:37;4.28;;;1.88;;
9880;SDS011;4979;51.014;6.678;2023-01-01T05:21:04;5.78;;;1.77;;
9880;SDS011;4979;51.014;6.678;2023-01-01T05:23:34;11.88;;;2.10;;
9880;SDS011;4979;51.014;6.678;2023-01-01T05:26:07;5.35;;;2.15;;
9880;SDS011;4979;51.014;6.678;2023-01-01T05:28:44;5.20;;;2.47;;
9880;SDS011;4979;51.014;6.678;2023-01-01T05:31:10;4.05;;;1.77;;
9880;SDS011;4979;51.014;6.678;2023-01-01T05:33:38;8.07;;;2.47;;
9880;SDS011;4979;51.014;6.678;2023-01-01T05:36:04;4.65;;;2.33;;
9880;SDS011;4979;51.014;6.678;2023-01-01T05:38:32;7.50;;;2.08;;
9880;SDS011;4979;51.014;6.678;2023-01-01T05:40:57;10.20;;;2.72;;
9880;SDS011;4979;51.014;6.678;2023-01-01T05:43:23;7.63;;;2.67;;
9880;SDS011;4979;51.014;6.678;2023-01-01T05:45:48;5.57;;;2.55;;
9880;SDS011;4979;51.014;6.678;2023-01-01T05:48:22;5.68;;;2.28;;
9880;SDS011;4979;51.014;6.678;2023-01-01T05:50:48;7.32;;;2.80;;
9880;SDS011;4979;51.014;6.678;2023-01-01T05:53:13;5.72;;;2.72;;
9880;SDS011;4979;51.014;6.678;2023-01-01T05:55:39;9.73;;;3.22;;
9880;SDS011;4979;51.014;6.678;2023-01-01T05:58:04;8.40;;;2.75;;
9880;SDS011;4979;51.014;6.678;2023-01-01T06:00:30;10.38;;;2.72;;
9880;SDS011;4979;51.014;6.678;2023-01-01T06:02:55;3.63;;;1.85;;
9880;SDS011;4979;51.014;6.678;2023-01-01T06:05:21;3.33;;;1.65;;
9880;SDS011;4979;51.014;6.678;2023-01-01T06:07:46;3.50;;;1.75;;
9880;SDS011;4979;51.014;6.678;2023-01-01T06:10:12;7.47;;;1.92;;
9880;SDS011;4979;51.014;6.678;2023-01-01T06:12:38;8.90;;;2.20;;
9880;SDS011;4979;51.014;6.678;2023-01-01T06:15:03;3.72;;;2.08;;
9880;SDS011;4979;51.014;6.678;2023-01-01T06:17:29;4.63;;;2.05;;
9880;SDS011;4979;51.014;6.678;2023-01-01T06:19:57;5.90;;;2.55;;
9880;SDS011;4979;51.014;6.678;2023-01-01T06:22:22;6.53;;;2.50;;
9880;SDS011;4979;51.014;6.678;2023-01-01T06:24:48;8.20;;;2.60;;
9880;SDS011;4979;51.014;6.678;2023-01-01T06:27:13;11.45;;;2.40;;
9880;SDS011;4979;51.014;6.678;2023-01-01T06:29:39;9.15;;;2.75;;
9880;SDS011;4979;51.014;6.678;2023-01-01T06:32:04;6.35;;;2.60;;
9880;SDS011;4979;51.014;6.678;2023-01-01T06:34:30;7.68;;;2.47;;
9880;SDS011;4979;51.014;6.678;2023-01-01T06:36:55;5.45;;;2.20;;
9880;SDS011;4979;51.014;6.678;2023-01-01T06:39:21;7.88;;;2.80;;
9880;SDS011;4979;51.014;6.678;2023-01-01T06:41:46;3.20;;;1.95;;
9880;SDS011;4979;51.014;6.678;2023-01-01T06:44:12;4.65;;;1.90;;
9880;SDS011;4979;51.014;6.678;2023-01-01T06:46:37;2.97;;;1.58;;
9880;SDS011;4979;51.014;6.678;2023-01-01T06:49:08;2.53;;;1.70;;
9880;SDS011;4979;51.014;6.678;2023-01-01T06:51:36;5.53;;;1.92;;
9880;SDS011;4979;51.014;6.678;2023-01-01T06:54:03;4.32;;;1.67;;
9880;SDS011;4979;51.014;6.678;2023-01-01T06:56:29;4.10;;;1.50;;
9880;SDS011;4979;51.014;6.678;2023-01-01T06:58:56;4.32;;;1.80;;
9880;SDS011;4979;51.014;6.678;2023-01-01T07:01:23;4.50;;;2.33;;
9880;SDS011;4979;51.014;6.678;2023-01-01T07:03:51;5.68;;;1.88;;
9880;SDS011;4979;51.014;6.678;2023-01-01T07:06:18;5.22;;;1.80;;
9880;SDS011;4979;51.014;6.678;2023-01-01T07:08:44;5.32;;;1.88;;
9880;SDS011;4979;51.014;6.678;2023-01-01T07:11:10;5.40;;;2.03;;
9880;SDS011;4979;51.014;6.678;2023-01-01T07:13:36;4.32;;;2.10;;
9880;SDS011;4979;51.014;6.678;2023-01-01T07:16:01;8.43;;;2.08;;
9880;SDS011;4979;51.014;6.678;2023-01-01T07:18:27;6.65;;;2.45;;
9880;SDS011;4979;51.014;6.678;2023-01-01T07:20:53;6.03;;;2.25;;
9880;SDS011;4979;51.014;6.678;2023-01-01T07:23:21;6.75;;;2.25;;
9880;SDS011;4979;51.014;6.678;2023-01-01T07:25:50;4.05;;;2.30;;
9880;SDS011;4979;51.014;6.678;2023-01-01T07:28:17;3.45;;;1.83;;
9880;SDS011;4979;51.014;6.678;2023-01-01T07:30:43;3.65;;;1.80;;
9880;SDS011;4979;51.014;6.678;2023-01-01T07:33:12;6.35;;;2.00;;
9880;SDS011;4979;51.014;6.678;2023-01-01T07:35:40;4.78;;;1.98;;
9880;SDS011;4979;51.014;6.678;2023-01-01T07:38:06;4.65;;;1.40;;
9880;SDS011;4979;51.014;6.678;2023-01-01T07:40:32;8.32;;;1.80;;
9880;SDS011;4979;51.014;6.678;2023-01-01T07:42:58;3.22;;;1.60;;
9880;SDS011;4979;51.014;6.678;2023-01-01T07:45:23;8.93;;;1.70;;
9880;SDS011;4979;51.014;6.678;2023-01-01T07:47:50;5.28;;;1.60;;
9880;SDS011;4979;51.014;6.678;2023-01-01T07:50:21;4.32;;;1.48;;
9880;SDS011;4979;51.014;6.678;2023-01-01T07:52:48;5.35;;;1.90;;
9880;SDS011;4979;51.014;6.678;2023-01-01T07:55:14;6.15;;;2.47;;
9880;SDS011;4979;51.014;6.678;2023-01-01T07:57:41;7.03;;;1.77;;
9880;SDS011;4979;51.014;6.678;2023-01-01T08:00:08;5.18;;;1.73;;
9880;SDS011;4979;51.014;6.678;2023-01-01T08:02:35;6.03;;;2.22;;
9880;SDS011;4979;51.014;6.678;2023-01-01T08:05:00;5.78;;;2.38;;
9880;SDS011;4979;51.014;6.678;2023-01-01T08:07:26;9.13;;;2.25;;
9880;SDS011;4979;51.014;6.678;2023-01-01T08:09:52;4.65;;;1.98;;
9880;SDS011;4979;51.014;6.678;2023-01-01T08:12:17;6.35;;;2.58;;
9880;SDS011;4979;51.014;6.678;2023-01-01T08:14:43;6.03;;;1.83;;
9880;SDS011;4979;51.014;6.678;2023-01-01T08:17:08;4.40;;;2.20;;
9880;SDS011;4979;51.014;6.678;2023-01-01T08:19:34;3.65;;;1.85;;
9880;SDS011;4979;51.014;6.678;2023-01-01T08:21:59;8.43;;;2.00;;
9880;SDS011;4979;51.014;6.678;2023-01-01T08:24:25;4.30;;;1.63;;
9880;SDS011;4979;51.014;6.678;2023-01-01T08:26:50;9.05;;;2.13;;
9880;SDS011;4979;51.014;6.678;2023-01-01T08:29:16;5.25;;;1.95;;
9880;SDS011;4979;51.014;6.678;2023-01-01T08:31:42;4.45;;;2.03;;
9880;SDS011;4979;51.014;6.678;2023-01-01T08:34:07;4.35;;;2.13;;
9880;SDS011;4979;51.014;6.678;2023-01-01T08:36:33;10.30;;;2.03;;
9880;SDS011;4979;51.014;6.678;2023-01-01T08:38:58;11.23;;;2.53;;
9880;SDS011;4979;51.014;6.678;2023-01-01T08:41:24;7.22;;;2.70;;
9880;SDS011;4979;51.014;6.678;2023-01-01T08:43:50;5.63;;;1.88;;
9880;SDS011;4979;51.014;6.678;2023-01-01T08:46:16;8.45;;;2.25;;
9880;SDS011;4979;51.014;6.678;2023-01-01T08:48:41;6.35;;;2.38;;
9880;SDS011;4979;51.014;6.678;2023-01-01T08:51:08;6.13;;;2.03;;
9880;SDS011;4979;51.014;6.678;2023-01-01T08:53:34;2.55;;;1.30;;
9880;SDS011;4979;51.014;6.678;2023-01-01T08:56:07;8.40;;;1.92;;
9880;SDS011;4979;51.014;6.678;2023-01-01T08:58:37;3.83;;;1.73;;
9880;SDS011;4979;51.014;6.678;2023-01-01T09:01:03;5.97;;;1.67;;
9880;SDS011;4979;51.014;6.678;2023-01-01T09:03:30;10.15;;;2.22;;
9880;SDS011;4979;51.014;6.678;2023-01-01T09:05:55;7.75;;;1.83;;
9880;SDS011;4979;51.014;6.678;2023-01-01T09:08:21;4.65;;;2.10;;
9880;SDS011;4979;51.014;6.678;2023-01-01T09:10:47;5.97;;;3.22;;
9880;SDS011;4979;51.014;6.678;2023-01-01T09:13:15;11.45;;;2.65;;
9880;SDS011;4979;51.014;6.678;2023-01-01T09:15:42;12.95;;;5.80;;
9880;SDS011;4979;51.014;6.678;2023-01-01T09:18:08;4.45;;;2.00;;
9880;SDS011;4979;51.014;6.678;2023-01-01T09:20:35;5.20;;;2.05;;
9880;SDS011;4979;51.014;6.678;2023-01-01T09:23:00;6.35;;;1.85;;
9880;SDS011;4979;51.014;6.678;2023-01-01T09:25:26;6.10;;;1.90;;
9880;SDS011;4979;51.014;6.678;2023-01-01T09:27:58;5.85;;;2.20;;
9880;SDS011;4979;51.014;6.678;2023-01-01T09:30:25;3.75;;;1.55;;
9880;SDS011;4979;51.014;6.678;2023-01-01T09:32:51;3.75;;;2.00;;
9880;SDS011;4979;51.014;6.678;2023-01-01T09:35:17;3.78;;;2.17;;
9880;SDS011;4979;51.014;6.678;2023-01-01T09:37:42;5.40;;;2.15;;
9880;SDS011;4979;51.014;6.678;2023-01-01T09:40:15;8.18;;;2.20;;
9880;SDS011;4979;51.014;6.678;2023-01-01T09:42:51;7.15;;;2.22;;
9880;SDS011;4979;51.014;6.678;2023-01-01T09:45:28;5.75;;;3.20;;
9880;SDS011;4979;51.014;6.678;2023-01-01T09:48:03;7.35;;;2.92;;
9880;SDS011;4979;51.014;6.678;2023-01-01T09:50:36;3.72;;;2.00;;
9880;SDS011;4979;51.014;6.678;2023-01-01T09:55:48;4.95;;;1.70;;
9880;SDS011;4979;51.014;6.678;2023-01-01T09:58:24;5.35;;;1.70;;
9880;SDS011;4979;51.014;6.678;2023-01-01T10:00:57;4.57;;;1.85;;
9880;SDS011;4979;51.014;6.678;2023-01-01T10:03:50;7.40;;;2.25;;
9880;SDS011;4979;51.014;6.678;2023-01-01T10:06:26;5.00;;;2.20;;
9880;SDS011;4979;51.014;6.678;2023-01-01T10:09:08;9.48;;;2.42;;
9880;SDS011;4979;51.014;6.678;2023-01-01T10:11:55;6.80;;;2.15;;
9880;SDS011;4979;51.014;6.678;2023-01-01T10:17:01;4.35;;;1.85;;
9880;SDS011;4979;51.014;6.678;2023-01-01T10:19:36;5.82;;;2.05;;
9880;SDS011;4979;51.014;6.678;2023-01-01T10:22:06;8.75;;;2.40;;
9880;SDS011;4979;51.014;6.678;2023-01-01T10:24:40;7.25;;;2.33;;
9880;SDS011;4979;51.014;6.678;2023-01-01T10:27:27;7.85;;;2.35;;
9880;SDS011;4979;51.014;6.678;2023-01-01T10:30:15;7.88;;;2.88;;
9880;SDS011;4979;51.014;6.678;2023-01-01T10:32:45;6.38;;;2.53;;
9880;SDS011;4979;51.014;6.678;2023-01-01T10:35:13;4.80;;;2.30;;
9880;SDS011;4979;51.014;6.678;2023-01-01T10:37:47;3.92;;;1.90;;
9880;SDS011;4979;51.014;6.678;2023-01-01T10:42:42;4.88;;;2.15;;
9880;SDS011;4979;51.014;6.678;2023-01-01T10:45:11;7.25;;;2.08;;
9880;SDS011;4979;51.014;6.678;2023-01-01T10:47:39;7.97;;;2.38;;
9880;SDS011;4979;51.014;6.678;2023-01-01T10:50:42;5.50;;;2.50;;
9880;SDS011;4979;51.014;6.678;2023-01-01T10:53:25;6.50;;;2.33;;
9880;SDS011;4979;51.014;6.678;2023-01-01T10:56:10;5.95;;;2.75;;
9880;SDS011;4979;51.014;6.678;2023-01-01T10:58:41;8.20;;;2.22;;
9880;SDS011;4979;51.014;6.678;2023-01-01T11:01:21;6.03;;;2.08;;
9880;SDS011;4979;51.014;6.678;2023-01-01T11:03:53;9.00;;;2.00;;
9880;SDS011;4979;51.014;6.678;2023-01-01T11:08:58;8.88;;;2.10;;
9880;SDS011;4979;51.014;6.678;2023-01-01T11:11:43;6.40;;;1.88;;
9880;SDS011;4979;51.014;6.678;2023-01-01T11:14:17;6.05;;;2.30;;
9880;SDS011;4979;51.014;6.678;2023-01-01T11:16:50;9.00;;;2.53;;
9880;SDS011;4979;51.014;6.678;2023-01-01T11:19:21;5.28;;;2.42;;
9880;SDS011;4979;51.014;6.678;2023-01-01T11:21:48;7.53;;;2.67;;
9880;SDS011;4979;51.014;6.678;2023-01-01T11:26:47;9.38;;;2.42;;
9880;SDS011;4979;51.014;6.678;2023-01-01T11:31:40;7.25;;;2.58;;
9880;SDS011;4979;51.014;6.678;2023-01-01T11:36:50;7.93;;;2.45;;
9880;SDS011;4979;51.014;6.678;2023-01-01T11:39:22;6.40;;;2.30;;
9880;SDS011;4979;51.014;6.678;2023-01-01T11:41:51;7.50;;;2.42;;
9880;SDS011;4979;51.014;6.678;2023-01-01T11:47:30;5.82;;;2.35;;
9880;SDS011;4979;51.014;6.678;2023-01-01T11:49:59;7.03;;;1.40;;
9880;SDS011;4979;51.014;6.678;2023-01-01T11:55:02;8.00;;;1.65;;
9880;SDS011;4979;51.014;6.678;2023-01-01T11:57:39;10.75;;;2.05;;
9880;SDS011;4979;51.014;6.678;2023-01-01T12:00:23;6.05;;;1.85;;
9880;SDS011;4979;51.014;6.678;2023-01-01T12:02:59;3.95;;;1.88;;
9880;SDS011;4979;51.014;6.678;2023-01-01T12:05:58;6.05;;;1.92;;
9880;SDS011;4979;51.014;6.678;2023-01-01T12:09:00;6.82;;;2.25;;
9880;SDS011;4979;51.014;6.678;2023-01-01T12:11:54;6.20;;;2.35;;
9880;SDS011;4979;51.014;6.678;2023-01-01T12:14:43;6.95;;;2.67;;
9880;SDS011;4979;51.014;6.678;2023-01-01T12:22:45;3.55;;;2.00;;
9880;SDS011;4979;51.014;6.678;2023-01-01T12:25:12;4.22;;;1.98;;
9880;SDS011;4979;51.014;6.678;2023-01-01T12:30:39;6.78;;;3.45;;
9880;SDS011;4979;51.014;6.678;2023-01-01T12:36:08;9.82;;;2.75;;
9880;SDS011;4979;51.014;6.678;2023-01-01T12:42:12;3.78;;;1.90;;
9880;SDS011;4979;51.014;6.678;2023-01-01T12:44:51;6.10;;;2.10;;
9880;SDS011;4979;51.014;6.678;2023-01-01T12:47:46;7.38;;;2.10;;
9880;SDS011;4979;51.014;6.678;2023-01-01T13:01:21;9.82;;;3.67;;
9880;SDS011;4979;51.014;6.678;2023-01-01T13:03:56;8.98;;;2.50;;
9880;SDS011;4979;51.014;6.678;2023-01-01T13:06:27;10.60;;;2.20;;
9880;SDS011;4979;51.014;6.678;2023-01-01T13:11:47;7.80;;;2.22;;
9880;SDS011;4979;51.014;6.678;2023-01-01T13:14:16;7.70;;;2.33;;
9880;SDS011;4979;51.014;6.678;2023-01-01T13:16:44;8.90;;;3.10;;
9880;SDS011;4979;51.014;6.678;2023-01-01T13:19:31;11.10;;;3.75;;
9880;SDS011;4979;51.014;6.678;2023-01-01T13:22:35;7.75;;;2.20;;
9880;SDS011;4979;51.014;6.678;2023-01-01T13:33:21;6.65;;;2.30;;
9880;SDS011;4979;51.014;6.678;2023-01-01T13:41:43;8.60;;;2.78;;
9880;SDS011;4979;51.014;6.678;2023-01-01T13:44:10;7.72;;;2.65;;
9880;SDS011;4979;51.014;6.678;2023-01-01T13:52:55;9.40;;;2.60;;
9880;SDS011;4979;51.014;6.678;2023-01-01T13:55:33;9.32;;;3.65;;
9880;SDS011;4979;51.014;6.678;2023-01-01T14:01:23;5.60;;;2.40;;
9880;SDS011;4979;51.014;6.678;2023-01-01T14:03:59;5.30;;;2.28;;
9880;SDS011;4979;51.014;6.678;2023-01-01T14:06:37;5.85;;;2.20;;
9880;SDS011;4979;51.014;6.678;2023-01-01T14:09:09;7.00;;;2.63;;
9880;SDS011;4979;51.014;6.678;2023-01-01T14:11:37;9.40;;;2.88;;
9880;SDS011;4979;51.014;6.678;2023-01-01T14:14:02;8.43;;;2.53;;
9880;SDS011;4979;51.014;6.678;2023-01-01T14:16:49;11.32;;;2.78;;
9880;SDS011;4979;51.014;6.678;2023-01-01T14:19:16;5.50;;;2.55;;
9880;SDS011;4979;51.014;6.678;2023-01-01T14:21:42;7.07;;;2.10;;
9880;SDS011;4979;51.014;6.678;2023-01-01T14:24:09;6.38;;;1.98;;
9880;SDS011;4979;51.014;6.678;2023-01-01T14:26:39;7.15;;;2.55;;
9880;SDS011;4979;51.014;6.678;2023-01-01T14:29:05;12.32;;;3.47;;
9880;SDS011;4979;51.014;6.678;2023-01-01T14:31:34;7.63;;;2.50;;
9880;SDS011;4979;51.014;6.678;2023-01-01T14:36:38;9.10;;;2.78;;
9880;SDS011;4979;51.014;6.678;2023-01-01T14:39:27;8.43;;;3.10;;
9880;SDS011;4979;51.014;6.678;2023-01-01T14:41:54;3.72;;;2.13;;
9880;SDS011;4979;51.014;6.678;2023-01-01T14:44:26;9.68;;;3.08;;
9880;SDS011;4979;51.014;6.678;2023-01-01T14:46:56;9.38;;;3.20;;
9880;SDS011;4979;51.014;6.678;2023-01-01T14:49:29;8.40;;;2.65;;
9880;SDS011;4979;51.014;6.678;2023-01-01T14:52:02;6.47;;;2.40;;
9880;SDS011;4979;51.014;6.678;2023-01-01T14:54:32;7.22;;;2.45;;
9880;SDS011;4979;51.014;6.678;2023-01-01T14:57:01;7.05;;;2.30;;
9880;SDS011;4979;51.014;6.678;2023-01-01T14:59:33;5.28;;;2.03;;
9880;SDS011;4979;51.014;6.678;2023-01-01T15:02:02;6.82;;;2.28;;
9880;SDS011;4979;51.014;6.678;2023-01-01T15:04:37;8.13;;;3.25;;
9880;SDS011;4979;51.014;6.678;2023-01-01T15:07:03;4.30;;;2.38;;
9880;SDS011;4979;51.014;6.678;2023-01-01T15:09:30;4.15;;;2.00;;
9880;SDS011;4979;51.014;6.678;2023-01-01T15:11:56;5.53;;;1.98;;
9880;SDS011;4979;51.014;6.678;2023-01-01T15:14:36;5.03;;;2.15;;
9880;SDS011;4979;51.014;6.678;2023-01-01T15:17:16;5.00;;;2.17;;
9880;SDS011;4979;51.014;6.678;2023-01-01T15:19:44;4.70;;;2.22;;
9880;SDS011;4979;51.014;6.678;2023-01-01T15:22:27;6.55;;;2.10;;
9880;SDS011;4979;51.014;6.678;2023-01-01T15:24:55;3.10;;;1.63;;
9880;SDS011;4979;51.014;6.678;2023-01-01T15:29:49;4.20;;;2.17;;
9880;SDS011;4979;51.014;6.678;2023-01-01T15:32:15;9.25;;;2.30;;
9880;SDS011;4979;51.014;6.678;2023-01-01T15:34:50;6.25;;;1.95;;
9880;SDS011;4979;51.014;6.678;2023-01-01T15:39:49;5.40;;;2.30;;
9880;SDS011;4979;51.014;6.678;2023-01-01T15:42:36;5.13;;;2.00;;
9880;SDS011;4979;51.014;6.678;2023-01-01T15:47:42;4.63;;;1.73;;
9880;SDS011;4979;51.014;6.678;2023-01-01T15:50:08;5.10;;;2.78;;
9880;SDS011;4979;51.014;6.678;2023-01-01T15:52:35;12.63;;;4.22;;
9880;SDS011;4979;51.014;6.678;2023-01-01T15:55:02;8.95;;;3.58;;
9880;SDS011;4979;51.014;6.678;2023-01-01T15:57:28;8.00;;;2.65;;
9880;SDS011;4979;51.014;6.678;2023-01-01T15:59:54;7.57;;;2.70;;
9880;SDS011;4979;51.014;6.678;2023-01-01T16:02:28;11.73;;;3.70;;
9880;SDS011;4979;51.014;6.678;2023-01-01T16:05:00;7.88;;;3.13;;
9880;SDS011;4979;51.014;6.678;2023-01-01T16:07:26;10.80;;;3.58;;
9880;SDS011;4979;51.014;6.678;2023-01-01T16:09:52;11.73;;;3.70;;
9880;SDS011;4979;51.014;6.678;2023-01-01T16:12:18;9.80;;;3.53;;
9880;SDS011;4979;51.014;6.678;2023-01-01T16:14:44;8.98;;;3.20;;
9880;SDS011;4979;51.014;6.678;2023-01-01T16:17:16;10.50;;;5.40;;
9880;SDS011;4979;51.014;6.678;2023-01-01T16:19:44;9.07;;;3.47;;
9880;SDS011;4979;51.014;6.678;2023-01-01T16:22:12;10.63;;;3.42;;
9880;SDS011;4979;51.014;6.678;2023-01-01T16:24:39;5.55;;;2.83;;
9880;SDS011;4979;51.014;6.678;2023-01-01T16:27:06;13.40;;;3.00;;
9880;SDS011;4979;51.014;6.678;2023-01-01T16:29:31;9.10;;;2.70;;
9880;SDS011;4979;51.014;6.678;2023-01-01T16:31:57;4.43;;;2.17;;
9880;SDS011;4979;51.014;6.678;2023-01-01T16:34:23;4.72;;;2.53;;
9880;SDS011;4979;51.014;6.678;2023-01-01T16:36:48;9.35;;;2.10;;
9880;SDS011;4979;51.014;6.678;2023-01-01T16:39:14;7.80;;;2.40;;
9880;SDS011;4979;51.014;6.678;2023-01-01T16:41:41;5.15;;;2.25;;
9880;SDS011;4979;51.014;6.678;2023-01-01T16:44:11;5.03;;;2.28;;
9880;SDS011;4979;51.014;6.678;2023-01-01T16:46:37;3.30;;;2.30;;
9880;SDS011;4979;51.014;6.678;2023-01-01T16:49:03;6.10;;;2.67;;
9880;SDS011;4979;51.014;6.678;2023-01-01T16:51:32;4.45;;;2.60;;
9880;SDS011;4979;51.014;6.678;2023-01-01T16:53:58;7.75;;;2.97;;
9880;SDS011;4979;51.014;6.678;2023-01-01T16:56:27;8.60;;;3.15;;
9880;SDS011;4979;51.014;6.678;2023-01-01T16:58:53;6.07;;;3.00;;
9880;SDS011;4979;51.014;6.678;2023-01-01T17:01:20;5.45;;;2.67;;
9880;SDS011;4979;51.014;6.678;2023-01-01T17:03:46;3.70;;;2.92;;
9880;SDS011;4979;51.014;6.678;2023-01-01T17:06:12;5.13;;;3.63;;
9880;SDS011;4979;51.014;6.678;2023-01-01T17:08:38;6.70;;;3.00;;
9880;SDS011;4979;51.014;6.678;2023-01-01T17:11:08;4.72;;;2.70;;
9880;SDS011;4979;51.014;6.678;2023-01-01T17:13:38;4.97;;;2.63;;
9880;SDS011;4979;51.014;6.678;2023-01-01T17:16:04;5.45;;;3.22;;
9880;SDS011;4979;51.014;6.678;2023-01-01T17:18:30;8.32;;;3.22;;
9880;SDS011;4979;51.014;6.678;2023-01-01T17:21:00;6.70;;;3.60;;
9880;SDS011;4979;51.014;6.678;2023-01-01T17:23:27;3.30;;;2.63;;
9880;SDS011;4979;51.014;6.678;2023-01-01T17:25:53;5.35;;;2.10;;
9880;SDS011;4979;51.014;6.678;2023-01-01T17:28:19;7.93;;;2.50;;
9880;SDS011;4979;51.014;6.678;2023-01-01T17:30:44;6.07;;;2.03;;